Time;durP1;ratioP1;P1;durP2;ratioP2;P2;SDS_P1;SDS_P2;PMS_P1;PMS_P2;Temp;Humidity;BMP_temperature;BMP_pressure;BME280_temperature;BME280_humidity;BME280_pressure;Samples;Min_cycle;Max_cycle;Signal;HPM_P1;HPM_P2
2022/02/15 00:01:18;;;;;;;7.30;4.82;;;-1.40;99.90;;;;;;5069296;28;20159;-70
2022/02/15 00:03:44;;;;;;;6.32;4.32;;;-1.40;99.90;;;;;;5069025;28;20270;-70
2022/02/15 00:06:11;;;;;;;8.75;4.78;;;-1.40;99.90;;;;;;5069203;28;20161;-70
2022/02/15 00:08:36;;;;;;;13.82;5.40;;;-1.30;99.90;;;;;;5067843;28;20551;-70
2022/02/15 00:11:02;;;;;;;9.05;6.03;;;-1.20;99.90;;;;;;5069182;28;20172;-70
2022/02/15 00:13:28;;;;;;;9.45;5.60;;;-1.10;99.90;;;;;;5069135;28;20260;-70
2022/02/15 00:15:54;;;;;;;14.52;5.68;;;-1.10;99.90;;;;;;5069157;28;20149;-70
2022/02/15 00:18:20;;;;;;;15.02;7.10;;;-1.30;99.90;;;;;;5067746;28;20200;-70
2022/02/15 00:20:46;;;;;;;10.35;5.70;;;-1.40;99.90;;;;;;5068970;28;20144;-70
2022/02/15 00:23:12;;;;;;;13.13;7.53;;;-1.40;99.90;;;;;;5068899;28;20648;-70
2022/02/15 00:25:38;;;;;;;13.02;5.95;;;-1.50;99.90;;;;;;5069018;28;20171;-70
2022/02/15 00:28:04;;;;;;;7.75;5.40;;;-1.70;99.90;;;;;;5068977;28;20711;-69
2022/02/15 00:30:30;;;;;;;10.93;5.80;;;-1.70;99.90;;;;;;5067693;28;20220;-70
2022/02/15 00:32:56;;;;;;;11.48;6.72;;;-1.60;99.90;;;;;;5069021;28;20161;-69
2022/02/15 00:35:22;;;;;;;9.00;5.22;;;-1.60;99.90;;;;;;5067463;28;20219;-69
2022/02/15 00:37:48;;;;;;;10.88;6.03;;;-1.60;99.90;;;;;;5068926;28;20163;-70
2022/02/15 00:40:14;;;;;;;10.07;6.07;;;-1.60;99.90;;;;;;5067533;28;20566;-70
2022/02/15 00:42:41;;;;;;;11.07;6.25;;;-1.60;99.90;;;;;;5068803;28;20167;-69
2022/02/15 00:45:08;;;;;;;11.45;5.53;;;-1.70;99.90;;;;;;5068873;28;20161;-70
2022/02/15 00:47:34;;;;;;;18.33;5.38;;;-1.70;99.90;;;;;;5068790;28;20165;-70
2022/02/15 00:50:01;;;;;;;8.15;4.95;;;-1.70;99.90;;;;;;5068703;28;20193;-70
2022/02/15 00:52:27;;;;;;;11.93;5.93;;;-1.70;99.90;;;;;;5069215;28;20200;-70
2022/02/15 00:54:56;;;;;;;11.45;6.05;;;-1.70;99.90;;;;;;5072794;28;20188;-70
2022/02/15 00:57:23;;;;;;;18.27;6.53;;;-1.80;99.90;;;;;;5072552;28;20212;-70
2022/02/15 00:59:50;;;;;;;11.43;6.20;;;-1.80;99.90;;;;;;5072374;28;20283;-69
2022/02/15 01:02:16;;;;;;;10.20;6.82;;;-1.70;99.90;;;;;;5071021;28;20250;-69
2022/02/15 01:04:42;;;;;;;18.50;8.38;;;-1.80;99.90;;;;;;5072410;28;20215;-70
2022/02/15 01:07:08;;;;;;;14.45;7.10;;;-1.80;99.90;;;;;;5072462;28;20216;-71
2022/02/15 01:09:35;;;;;;;8.82;5.32;;;-1.80;99.90;;;;;;5072212;28;20192;-70
2022/02/15 01:12:01;;;;;;;12.45;6.97;;;-1.80;99.90;;;;;;5072331;28;20224;-69
2022/02/15 01:14:27;;;;;;;12.63;5.20;;;-1.80;99.90;;;;;;5070915;28;20193;-70
2022/02/15 01:16:53;;;;;;;14.82;6.57;;;-1.90;99.90;;;;;;5072273;28;20164;-70
2022/02/15 01:19:19;;;;;;;9.05;5.18;;;-1.90;99.90;;;;;;5072209;28;20184;-70
2022/02/15 01:21:45;;;;;;;10.13;5.70;;;-2.00;99.90;;;;;;5072267;28;20161;-70
2022/02/15 01:24:11;;;;;;;8.63;5.22;;;-2.20;99.90;;;;;;5072299;28;20224;-69
2022/02/15 01:26:37;;;;;;;7.20;5.38;;;-2.20;99.90;;;;;;5072073;28;20170;-69
2022/02/15 01:29:03;;;;;;;9.60;5.57;;;-2.30;99.90;;;;;;5071818;28;20188;-70
2022/02/15 01:31:30;;;;;;;12.68;6.40;;;-2.20;99.90;;;;;;5071956;28;20157;-69
2022/02/15 01:33:55;;;;;;;11.80;5.53;;;-2.20;99.90;;;;;;5071801;28;20223;-69
2022/02/15 01:36:21;;;;;;;8.50;5.50;;;-2.30;99.90;;;;;;5071762;28;20169;-70
2022/02/15 01:38:47;;;;;;;13.57;5.70;;;-2.20;99.90;;;;;;5071763;28;20197;-70
2022/02/15 01:41:13;;;;;;;9.82;4.97;;;-2.10;99.90;;;;;;5071796;28;20602;-70
2022/02/15 01:43:44;;;;;;;7.35;5.05;;;-2.10;99.90;;;;;;5071817;28;20618;-70
2022/02/15 01:46:11;;;;;;;7.10;4.38;;;-2.20;99.90;;;;;;5071772;28;20156;-70
2022/02/15 01:48:39;;;;;;;5.70;3.85;;;-2.20;99.90;;;;;;5071570;28;20199;-70
2022/02/15 01:51:06;;;;;;;11.00;4.78;;;-2.20;99.90;;;;;;5070277;28;20537;-70
2022/02/15 01:53:32;;;;;;;8.00;4.82;;;-2.20;99.90;;;;;;5071451;28;20168;-70
2022/02/15 01:55:59;;;;;;;7.00;5.07;;;-2.10;99.90;;;;;;5071511;28;20160;-70
2022/02/15 01:58:25;;;;;;;10.50;5.28;;;-2.10;99.90;;;;;;5071454;28;20256;-70
2022/02/15 02:00:52;;;;;;;8.30;4.85;;;-2.20;99.90;;;;;;5070028;28;20192;-70
2022/02/15 02:03:18;;;;;;;10.25;4.00;;;-2.20;99.90;;;;;;5071093;28;20286;-70
2022/02/15 02:05:48;;;;;;;6.00;4.53;;;-2.30;99.90;;;;;;5069085;28;20236;-70
2022/02/15 02:08:19;;;;;;;10.55;4.80;;;-2.40;99.90;;;;;;5071272;28;20188;-70
2022/02/15 02:10:46;;;;;;;6.15;4.32;;;-2.50;99.90;;;;;;5071351;28;20170;-70
2022/02/15 02:13:12;;;;;;;9.10;4.47;;;-2.50;99.90;;;;;;5071135;28;20171;-70
2022/02/15 02:15:38;;;;;;;8.82;5.00;;;-2.50;99.90;;;;;;5070996;28;20307;-70
2022/02/15 02:18:06;;;;;;;7.60;4.97;;;-2.40;99.90;;;;;;5071030;28;20160;-70
2022/02/15 02:20:32;;;;;;;6.78;4.28;;;-2.40;99.90;;;;;;5071162;28;20591;-70
2022/02/15 02:22:58;;;;;;;11.73;4.82;;;-2.40;99.90;;;;;;5070998;28;20168;-70
2022/02/15 02:25:24;;;;;;;9.25;3.83;;;-2.50;99.90;;;;;;5070940;28;20180;-70
2022/02/15 02:27:51;;;;;;;9.05;4.30;;;-2.50;99.90;;;;;;5069603;28;20173;-70
2022/02/15 02:30:18;;;;;;;8.05;4.80;;;-2.50;99.90;;;;;;5070740;28;20208;-70
2022/02/15 02:32:44;;;;;;;8.55;5.00;;;-2.50;99.90;;;;;;5070818;28;20161;-70
2022/02/15 02:35:11;;;;;;;6.90;4.32;;;-2.40;99.90;;;;;;5070660;28;20188;-70
2022/02/15 02:37:38;;;;;;;9.07;5.38;;;-2.30;99.90;;;;;;5070742;28;20164;-70
2022/02/15 02:40:08;;;;;;;9.55;4.47;;;-2.30;99.90;;;;;;5084398;28;20282;-70
2022/02/15 02:42:34;;;;;;;9.55;4.22;;;-2.40;99.90;;;;;;5090599;28;20202;-70
2022/02/15 02:45:05;;;;;;;8.68;3.90;;;-2.50;99.90;;;;;;5090573;28;20215;-70
2022/02/15 02:47:31;;;;;;;11.38;5.25;;;-2.60;99.90;;;;;;5090503;28;20214;-70
2022/02/15 02:49:57;;;;;;;12.15;5.25;;;-2.60;99.90;;;;;;5090538;28;20195;-69
2022/02/15 02:52:24;;;;;;;8.00;4.20;;;-2.60;99.90;;;;;;5090376;28;20224;-70
2022/02/15 02:54:50;;;;;;;7.63;4.38;;;-2.50;99.90;;;;;;5090289;28;20243;-70
2022/02/15 02:57:17;;;;;;;6.93;4.38;;;-2.40;99.90;;;;;;5090450;28;20160;-70
2022/02/15 02:59:46;;;;;;;7.93;4.22;;;-2.30;99.90;;;;;;5088926;28;20264;-70
2022/02/15 03:02:13;;;;;;;7.45;4.25;;;-2.10;99.90;;;;;;5090293;28;20207;-69
2022/02/15 03:04:38;;;;;;;12.38;5.15;;;-2.10;99.90;;;;;;5090115;28;20199;-70
2022/02/15 03:07:05;;;;;;;11.95;4.65;;;-2.10;99.90;;;;;;5090197;28;20164;-70
2022/02/15 03:09:32;;;;;;;7.85;5.20;;;-2.20;99.90;;;;;;5090108;28;20196;-70
2022/02/15 03:11:58;;;;;;;12.43;4.45;;;-2.20;99.90;;;;;;5090021;28;20160;-70
2022/02/15 03:14:24;;;;;;;6.93;4.80;;;-2.30;99.90;;;;;;5090079;28;20202;-70
2022/02/15 03:16:50;;;;;;;12.50;5.45;;;-2.40;99.90;;;;;;5089012;28;20160;-70
2022/02/15 03:19:16;;;;;;;9.18;5.35;;;-2.40;99.90;;;;;;5089731;28;20197;-70
2022/02/15 03:21:42;;;;;;;9.65;5.50;;;-2.40;99.90;;;;;;5089760;28;20152;-70
2022/02/15 03:24:08;;;;;;;12.13;4.63;;;-2.30;99.90;;;;;;5089714;28;20160;-69
2022/02/15 03:26:35;;;;;;;11.35;5.68;;;-2.30;99.90;;;;;;5089796;28;20164;-69
2022/02/15 03:29:02;;;;;;;9.90;5.63;;;-2.40;99.90;;;;;;5089772;28;20192;-70
2022/02/15 03:31:28;;;;;;;12.18;5.65;;;-2.40;99.90;;;;;;5089756;28;20588;-69
2022/02/15 03:33:54;;;;;;;10.30;5.53;;;-2.40;99.90;;;;;;5089617;28;20192;-69
2022/02/15 03:36:20;;;;;;;9.73;5.13;;;-2.40;99.90;;;;;;5089534;28;20224;-69
2022/02/15 03:38:46;;;;;;;6.82;4.78;;;-2.40;99.90;;;;;;5088102;28;20184;-69
2022/02/15 03:43:56;;;;;;;9.68;5.00;;;-2.40;99.90;;;;;;5089270;28;20170;-70
2022/02/15 03:46:23;;;;;;;15.23;5.00;;;-2.50;99.90;;;;;;5089219;28;20160;-69
2022/02/15 03:48:51;;;;;;;7.40;4.07;;;-2.60;99.90;;;;;;5089467;28;20217;-70
2022/02/15 03:51:17;;;;;;;9.57;5.10;;;-2.50;99.90;;;;;;5088017;28;20250;-69
2022/02/15 03:53:43;;;;;;;12.60;5.38;;;-2.30;99.90;;;;;;5089170;28;20163;-69
2022/02/15 03:56:10;;;;;;;14.85;5.78;;;-2.30;99.90;;;;;;5089187;28;20186;-69
2022/02/15 03:58:37;;;;;;;8.77;5.22;;;-2.20;99.90;;;;;;5089220;28;20199;-70
2022/02/15 04:01:04;;;;;;;6.80;4.28;;;-2.20;99.90;;;;;;5089262;28;20152;-70
2022/02/15 04:03:30;;;;;;;7.47;5.38;;;-2.20;99.90;;;;;;5089100;28;20242;-70
2022/02/15 04:05:56;;;;;;;7.45;4.78;;;-2.20;99.90;;;;;;5089325;28;20239;-70
2022/02/15 04:08:23;;;;;;;6.43;3.33;;;-2.30;99.90;;;;;;5089067;28;20193;-70
2022/02/15 04:10:50;;;;;;;8.40;5.63;;;-2.20;99.90;;;;;;5089133;28;20167;-69
2022/02/15 04:13:17;;;;;;;14.20;4.38;;;-2.20;99.90;;;;;;5089431;28;20189;-70
2022/02/15 04:15:44;;;;;;;7.95;3.70;;;-1.80;99.90;;;;;;5089127;28;20196;-70
2022/02/15 04:18:11;;;;;;;10.52;4.65;;;-1.70;99.90;;;;;;5089164;28;20156;-70
2022/02/15 04:20:37;;;;;;;15.48;4.20;;;-1.70;99.90;;;;;;5089049;28;20195;-70
2022/02/15 04:23:03;;;;;;;11.50;4.50;;;-1.70;99.90;;;;;;5089046;28;20163;-70
2022/02/15 04:25:29;;;;;;;5.90;3.22;;;-1.70;99.90;;;;;;5089195;28;20225;-70
2022/02/15 04:27:55;;;;;;;9.85;5.43;;;-1.70;99.90;;;;;;5090107;28;20164;-70
2022/02/15 04:30:21;;;;;;;7.88;4.25;;;-1.70;99.90;;;;;;5093096;28;20195;-69
2022/02/15 04:32:47;;;;;;;7.70;4.15;;;-1.70;99.90;;;;;;5093047;28;20167;-70
2022/02/15 04:35:13;;;;;;;5.10;3.28;;;-1.80;99.90;;;;;;5092817;28;20192;-70
2022/02/15 04:37:39;;;;;;;8.57;3.92;;;-1.80;99.90;;;;;;5092308;28;20152;-70
2022/02/15 04:40:07;;;;;;;7.15;4.05;;;-1.80;99.90;;;;;;5092949;28;20725;-69
2022/02/15 04:42:33;;;;;;;9.00;4.30;;;-1.80;99.90;;;;;;5092643;28;20196;-69
2022/02/15 04:44:58;;;;;;;6.30;4.13;;;-1.70;99.90;;;;;;5092689;28;20160;-69
2022/02/15 04:47:24;;;;;;;7.80;4.18;;;-1.60;99.90;;;;;;5092525;28;20180;-69
2022/02/15 04:49:50;;;;;;;7.80;4.78;;;-1.60;99.90;;;;;;5092553;28;20191;-69
2022/02/15 04:52:16;;;;;;;7.28;4.05;;;-1.70;99.90;;;;;;5092556;28;20220;-70
2022/02/15 04:54:42;;;;;;;13.00;3.75;;;-1.70;99.90;;;;;;5092388;28;20184;-70
2022/02/15 04:57:08;;;;;;;10.57;3.80;;;-1.70;99.90;;;;;;5092636;28;20613;-70
2022/02/15 04:59:34;;;;;;;7.80;4.38;;;-1.70;99.90;;;;;;5092336;28;20243;-69
2022/02/15 05:01:59;;;;;;;5.13;4.28;;;-1.70;99.90;;;;;;5092079;28;20184;-69
2022/02/15 05:07:10;;;;;;;7.38;3.60;;;-1.80;99.90;;;;;;5092396;28;20155;-69
2022/02/15 05:09:36;;;;;;;9.55;4.28;;;-1.80;99.90;;;;;;5092146;28;20251;-69
2022/02/15 05:12:01;;;;;;;11.18;5.35;;;-1.70;99.90;;;;;;5092352;28;20168;-69
2022/02/15 05:14:27;;;;;;;12.73;4.03;;;-1.60;99.90;;;;;;5092108;28;20243;-69
2022/02/15 05:16:53;;;;;;;8.02;3.97;;;-1.50;99.90;;;;;;5092130;28;20239;-69
2022/02/15 05:19:19;;;;;;;8.25;4.85;;;-1.60;99.90;;;;;;5092063;28;20191;-69
2022/02/15 05:21:45;;;;;;;7.55;5.05;;;-1.60;99.90;;;;;;5091872;28;20152;-69
2022/02/15 05:24:11;;;;;;;11.70;5.03;;;-1.60;99.90;;;;;;5092044;28;20189;-69
2022/02/15 05:26:37;;;;;;;11.23;5.30;;;-1.70;99.90;;;;;;5091804;28;20227;-69
2022/02/15 05:29:03;;;;;;;15.18;4.88;;;-1.70;99.90;;;;;;5091772;28;20222;-69
2022/02/15 05:31:29;;;;;;;10.18;5.32;;;-1.70;99.90;;;;;;5091909;28;20164;-69
2022/02/15 05:33:55;;;;;;;11.18;4.05;;;-1.60;99.90;;;;;;5091618;28;20191;-69
2022/02/15 05:36:21;;;;;;;10.75;4.28;;;-1.60;99.90;;;;;;5091774;28;20159;-69
2022/02/15 05:38:47;;;;;;;4.72;3.22;;;-1.20;99.90;;;;;;5091352;28;20188;-69
2022/02/15 05:41:13;;;;;;;10.32;3.92;;;-0.30;99.90;;;;;;5091029;28;20218;-69
2022/02/15 05:43:38;;;;;;;8.23;4.03;;;-0.20;99.90;;;;;;5091653;28;20168;-69
2022/02/15 05:46:04;;;;;;;7.38;3.80;;;-0.50;99.90;;;;;;5091311;28;20568;-69
2022/02/15 05:48:30;;;;;;;7.25;4.13;;;-0.60;99.90;;;;;;5091545;28;20224;-69
2022/02/15 05:50:56;;;;;;;6.57;3.78;;;-0.80;99.90;;;;;;5091475;28;20603;-69
2022/02/15 05:53:24;;;;;;;8.73;4.20;;;-1.00;99.90;;;;;;5091362;28;20182;-69
2022/02/15 05:55:52;;;;;;;10.43;4.47;;;-1.20;99.90;;;;;;5091272;28;20191;-69
2022/02/15 05:58:20;;;;;;;13.95;3.67;;;-1.30;99.90;;;;;;5091039;28;20148;-70
2022/02/15 06:00:46;;;;;;;8.07;2.70;;;-1.40;99.90;;;;;;5090874;28;20148;-69
2022/02/15 06:05:56;;;;;;;9.05;3.67;;;-1.10;99.90;;;;;;5090923;28;20601;-69
2022/02/15 06:08:22;;;;;;;9.02;4.05;;;-1.10;99.90;;;;;;5090858;28;20152;-69
2022/02/15 06:10:48;;;;;;;5.38;3.95;;;-1.10;99.90;;;;;;5090652;28;20153;-69
2022/02/15 06:13:15;;;;;;;7.95;3.55;;;-1.20;99.90;;;;;;5091027;28;20220;-69
2022/02/15 06:15:42;;;;;;;9.13;2.88;;;-1.20;99.90;;;;;;5090904;28;20187;-69
2022/02/15 06:18:08;;;;;;;8.50;3.67;;;-1.20;99.90;;;;;;5090924;28;20156;-69
2022/02/15 06:20:34;;;;;;;6.65;3.55;;;-1.10;99.90;;;;;;5090619;28;20188;-70
2022/02/15 06:23:00;;;;;;;11.40;3.22;;;-0.70;99.90;;;;;;5090549;28;20506;-69
2022/02/15 06:25:27;;;;;;;9.75;3.28;;;-0.50;99.90;;;;;;5090851;28;20156;-69
2022/02/15 06:27:53;;;;;;;5.03;2.55;;;-0.40;99.90;;;;;;5090685;28;20160;-69
2022/02/15 06:30:20;;;;;;;9.13;3.05;;;-0.30;99.90;;;;;;5090567;28;20196;-69
2022/02/15 06:32:46;;;;;;;5.93;3.42;;;-0.20;99.90;;;;;;5090510;28;20156;-69
2022/02/15 06:35:12;;;;;;;4.45;2.28;;;-0.20;99.90;;;;;;5090524;28;20564;-70
2022/02/15 06:37:46;;;;;;;6.25;3.80;;;-0.20;99.90;;;;;;5090617;28;20186;-69
2022/02/15 06:40:14;;;;;;;5.72;2.70;;;-0.20;99.90;;;;;;5090111;28;20185;-69
2022/02/15 06:42:41;;;;;;;5.93;3.03;;;-0.10;99.90;;;;;;5090413;28;20215;-69
2022/02/15 06:45:08;;;;;;;4.82;3.33;;;-0.10;99.90;;;;;;5090374;28;20160;-69
2022/02/15 06:47:34;;;;;;;9.13;3.80;;;0.00;99.90;;;;;;5088711;28;20263;-69
2022/02/15 06:50:00;;;;;;;7.38;3.78;;;0.20;99.90;;;;;;5089864;28;20192;-69
2022/02/15 06:52:27;;;;;;;19.83;6.95;;;0.70;99.90;;;;;;5089924;28;20156;-70
2022/02/15 06:54:53;;;;;;;13.80;6.15;;;0.80;99.90;;;;;;5088714;28;20199;-69
2022/02/15 06:57:20;;;;;;;16.55;7.05;;;0.90;99.90;;;;;;5089940;28;20179;-69
2022/02/15 06:59:46;;;;;;;15.07;6.60;;;0.90;99.90;;;;;;5089695;28;20195;-70
2022/02/15 07:02:12;;;;;;;16.08;6.70;;;0.90;99.90;;;;;;5089598;28;20208;-69
2022/02/15 07:04:38;;;;;;;11.65;6.35;;;1.00;99.90;;;;;;5090057;28;20156;-69
2022/02/15 07:07:05;;;;;;;27.92;7.93;;;0.90;99.90;;;;;;5090014;28;20476;-68
2022/02/15 07:09:31;;;;;;;13.35;5.82;;;0.80;99.90;;;;;;5089756;28;20195;-69
2022/02/15 07:11:57;;;;;;;10.02;5.45;;;0.80;99.90;;;;;;5088681;28;20207;-69
2022/02/15 07:14:23;;;;;;;14.50;6.72;;;0.90;99.90;;;;;;5078949;28;20200;-69
2022/02/15 07:16:49;;;;;;;11.90;6.63;;;1.10;99.90;;;;;;5084834;28;20231;-69
2022/02/15 07:19:15;;;;;;;12.77;6.07;;;1.20;99.90;;;;;;5074210;28;20200;-69
2022/02/15 07:21:42;;;;;;;12.02;5.60;;;1.20;99.90;;;;;;5075980;28;20185;-69
2022/02/15 07:24:08;;;;;;;18.48;6.88;;;1.40;99.90;;;;;;5069582;28;20149;-69
2022/02/15 07:26:33;;;;;;;14.13;5.82;;;1.40;99.90;;;;;;5069574;28;20156;-70
2022/02/15 07:28:59;;;;;;;11.80;5.80;;;1.40;99.90;;;;;;5068045;28;20300;-69
2022/02/15 07:31:26;;;;;;;15.00;5.32;;;1.60;99.90;;;;;;5081129;28;20187;-69
2022/02/15 07:33:52;;;;;;;7.60;4.75;;;1.80;99.90;;;;;;5081736;28;20180;-69
2022/02/15 07:36:19;;;;;;;11.20;4.35;;;2.10;99.90;;;;;;5069451;28;20157;-69
2022/02/15 07:38:46;;;;;;;8.45;4.90;;;2.60;99.90;;;;;;5069235;28;20610;-69
2022/02/15 07:41:12;;;;;;;8.55;5.43;;;3.10;99.90;;;;;;5069371;28;20160;-69
2022/02/15 07:43:38;;;;;;;10.15;5.78;;;4.40;99.90;;;;;;5069155;28;20199;-69
2022/02/15 07:46:06;;;;;;;13.73;5.95;;;4.10;99.90;;;;;;5069347;28;20157;-69
2022/02/15 07:48:34;;;;;;;10.77;4.40;;;4.00;99.90;;;;;;5069154;28;20161;-69
2022/02/15 07:51:01;;;;;;;10.95;4.75;;;4.10;99.90;;;;;;5069376;28;20156;-70
2022/02/15 07:53:27;;;;;;;10.38;4.55;;;4.80;99.90;;;;;;5069198;28;20161;-69
2022/02/15 07:55:52;;;;;;;7.25;4.20;;;6.00;99.90;;;;;;5069071;28;20219;-69
2022/02/15 07:58:18;;;;;;;8.45;4.20;;;6.10;99.90;;;;;;5069000;28;20183;-69
2022/02/15 08:00:44;;;;;;;11.73;4.25;;;5.60;99.90;;;;;;5067820;28;20180;-70
2022/02/15 08:03:10;;;;;;;5.75;2.65;;;5.50;99.90;;;;;;5068428;28;20275;-69
2022/02/15 08:05:41;;;;;;;9.65;3.67;;;5.40;99.90;;;;;;5069147;28;20192;-69
2022/02/15 08:08:07;;;;;;;8.18;3.35;;;5.40;99.90;;;;;;5068972;28;20157;-68
2022/02/15 08:10:34;;;;;;;9.23;3.00;;;5.40;99.90;;;;;;5068737;28;20200;-69
2022/02/15 08:13:02;;;;;;;6.18;3.78;;;5.20;99.90;;;;;;5068915;28;20184;-68
2022/02/15 08:15:30;;;;;;;6.53;3.25;;;5.10;99.90;;;;;;5068856;28;20242;-69
2022/02/15 08:17:57;;;;;;;10.20;2.97;;;5.90;99.90;;;;;;5068809;28;20157;-69
2022/02/15 08:20:24;;;;;;;11.60;3.65;;;5.80;99.90;;;;;;5068607;28;20200;-69
2022/02/15 08:22:50;;;;;;;10.20;3.42;;;5.70;99.90;;;;;;5068065;28;20164;-69
2022/02/15 08:25:18;;;;;;;6.05;3.10;;;5.80;99.90;;;;;;5068126;28;20167;-69
2022/02/15 08:27:46;;;;;;;9.90;2.92;;;6.10;99.90;;;;;;5068801;28;20165;-69
2022/02/15 08:30:15;;;;;;;10.45;3.65;;;6.70;99.90;;;;;;5068772;28;20196;-69
2022/02/15 08:32:41;;;;;;;8.73;3.70;;;8.30;99.90;;;;;;5068807;28;20160;-69
2022/02/15 08:35:08;;;;;;;6.65;2.75;;;9.80;99.90;;;;;;5068594;28;20239;-69
2022/02/15 08:37:35;;;;;;;6.72;2.65;;;12.80;99.00;;;;;;5068683;28;20164;-69
2022/02/15 08:40:03;;;;;;;5.85;2.28;;;14.40;95.50;;;;;;5068478;28;20180;-70
2022/02/15 08:42:30;;;;;;;4.75;2.35;;;15.20;94.30;;;;;;5068727;28;20164;-69
2022/02/15 08:44:56;;;;;;;9.77;3.70;;;15.40;93.80;;;;;;5068773;28;20165;-70
2022/02/15 08:47:22;;;;;;;5.88;2.58;;;17.10;91.20;;;;;;5068650;28;20243;-70
2022/02/15 08:49:53;;;;;;;4.78;2.58;;;18.00;90.00;;;;;;5068713;28;20193;-69
2022/02/15 08:52:20;;;;;;;5.63;2.25;;;17.80;89.10;;;;;;5067275;28;20183;-70
2022/02/15 08:54:47;;;;;;;6.05;2.85;;;16.30;90.80;;;;;;5072359;28;20192;-68
2022/02/15 08:57:14;;;;;;;9.15;3.80;;;16.10;91.10;;;;;;5087355;28;20169;-67
2022/02/15 08:59:40;;;;;;;8.82;2.35;;;17.70;90.00;;;;;;5089910;28;20206;-68
2022/02/15 09:02:06;;;;;;;13.35;3.17;;;19.40;86.10;;;;;;5101621;28;20160;-68
2022/02/15 09:04:32;;;;;;;6.85;2.60;;;17.60;88.00;;;;;;5097586;28;20191;-68
2022/02/15 09:06:58;;;;;;;11.73;2.65;;;18.00;87.20;;;;;;5091981;28;20211;-68
2022/02/15 09:09:24;;;;;;;5.57;2.95;;;18.90;84.50;;;;;;5104499;28;20167;-68
2022/02/15 09:11:50;;;;;;;11.18;2.80;;;18.60;86.20;;;;;;5091608;28;20167;-68
2022/02/15 09:14:16;;;;;;;6.30;2.95;;;18.50;85.70;;;;;;5098726;28;20237;-68
2022/02/15 09:16:42;;;;;;;4.50;2.38;;;17.70;87.10;;;;;;5089048;28;21094;-68
2022/02/15 09:19:08;;;;;;;6.43;2.95;;;17.80;87.00;;;;;;5110686;28;20191;-68
2022/02/15 09:21:34;;;;;;;4.88;2.60;;;17.50;87.70;;;;;;5104608;28;20175;-68
2022/02/15 09:24:01;;;;;;;5.53;2.78;;;17.30;88.60;;;;;;5092002;28;20589;-68
2022/02/15 09:26:28;;;;;;;7.90;2.80;;;18.50;84.80;;;;;;5102386;28;20195;-68
2022/02/15 09:28:54;;;;;;;4.30;2.33;;;18.40;86.10;;;;;;5088964;28;20211;-68
2022/02/15 09:31:21;;;;;;;5.30;2.50;;;18.30;85.60;;;;;;5088457;28;20196;-68
2022/02/15 09:33:52;;;;;;;6.10;2.88;;;18.60;85.30;;;;;;5091724;28;20562;-69
2022/02/15 09:36:24;;;;;;;8.10;2.83;;;18.90;84.40;;;;;;5088529;28;20192;-68
2022/02/15 09:38:50;;;;;;;12.43;3.55;;;19.50;84.10;;;;;;5105211;28;20168;-68
2022/02/15 09:41:16;;;;;;;6.53;3.63;;;19.40;83.00;;;;;;5094237;28;20185;-68
2022/02/15 09:43:44;;;;;;;7.68;2.92;;;18.00;84.40;;;;;;5104864;28;20171;-68
2022/02/15 09:46:13;;;;;;;5.43;3.05;;;17.50;86.20;;;;;;5085702;28;20195;-69
2022/02/15 09:48:44;;;;;;;9.77;3.78;;;17.10;86.50;;;;;;5083448;28;20202;-69
2022/02/15 09:51:11;;;;;;;7.40;3.20;;;17.00;88.50;;;;;;5089851;28;20195;-69
2022/02/15 09:53:38;;;;;;;7.40;2.83;;;17.50;87.90;;;;;;5106265;28;20164;-68
2022/02/15 09:56:05;;;;;;;10.85;3.38;;;17.60;87.00;;;;;;5091076;28;20199;-69
2022/02/15 09:58:33;;;;;;;9.93;3.75;;;17.60;87.00;;;;;;5094550;28;20205;-68
2022/02/15 10:01:02;;;;;;;12.43;4.47;;;17.80;85.90;;;;;;5101590;28;20248;-68
2022/02/15 10:03:27;;;;;;;8.05;4.50;;;17.70;86.80;;;;;;5103319;28;20245;-68
2022/02/15 10:05:53;;;;;;;12.23;5.18;;;18.10;86.50;;;;;;5093693;28;20859;-68
2022/02/15 10:08:26;;;;;;;7.45;4.00;;;17.90;87.00;;;;;;5106810;28;20198;-68
2022/02/15 10:10:52;;;;;;;6.88;3.83;;;17.50;88.90;;;;;;5098087;28;20231;-68
2022/02/15 10:13:17;;;;;;;15.05;4.70;;;17.20;89.40;;;;;;5098902;28;20172;-69
2022/02/15 10:15:48;;;;;;;9.27;4.25;;;17.50;89.80;;;;;;5105113;28;20195;-69
2022/02/15 10:18:19;;;;;;;13.98;4.22;;;16.90;89.90;;;;;;5093400;28;20254;-68
2022/02/15 10:20:46;;;;;;;8.48;4.72;;;16.70;90.30;;;;;;5102872;28;20168;-68
2022/02/15 10:23:20;;;;;;;6.78;3.60;;;17.00;90.50;;;;;;5089570;28;20618;-68
2022/02/15 10:25:47;;;;;;;8.40;4.65;;;17.50;90.30;;;;;;5086545;28;20199;-68
2022/02/15 10:28:19;;;;;;;7.00;4.60;;;17.50;91.00;;;;;;5087534;28;20191;-69
2022/02/15 10:30:49;;;;;;;9.52;4.13;;;17.30;90.20;;;;;;5089335;28;20160;-68
2022/02/15 10:33:17;;;;;;;11.00;4.35;;;16.60;90.90;;;;;;5089975;28;20665;-68
2022/02/15 10:35:56;;;;;;;9.50;4.60;;;16.70;91.60;;;;;;5090528;28;20202;-68
2022/02/15 10:38:32;;;;;;;5.35;3.80;;;17.60;90.90;;;;;;5090701;28;20164;-68
2022/02/15 10:41:07;;;;;;;6.93;3.38;;;19.20;90.20;;;;;;5090535;28;20219;-69
2022/02/15 10:43:42;;;;;;;6.70;3.17;;;19.60;88.30;;;;;;5090345;28;20183;-68
2022/02/15 10:46:29;;;;;;;7.43;3.05;;;19.70;87.90;;;;;;5088100;28;20195;-69
2022/02/15 10:48:57;;;;;;;7.22;3.13;;;19.50;88.70;;;;;;5086757;28;20267;-68
2022/02/15 10:51:25;;;;;;;10.07;3.10;;;19.00;89.60;;;;;;5088950;28;20209;-69
2022/02/15 10:53:51;;;;;;;9.45;3.83;;;18.50;91.30;;;;;;5104814;28;20213;-69
2022/02/15 10:56:18;;;;;;;4.00;2.05;;;19.00;90.80;;;;;;5109056;28;20210;-68
2022/02/15 10:58:47;;;;;;;4.82;2.17;;;19.40;88.20;;;;;;5108647;28;20179;-69
2022/02/15 11:01:13;;;;;;;6.97;2.53;;;19.00;90.10;;;;;;5108873;28;20191;-69
2022/02/15 11:03:41;;;;;;;8.45;3.10;;;19.20;90.10;;;;;;5110028;28;20244;-68
2022/02/15 11:06:09;;;;;;;9.90;1.88;;;19.90;89.50;;;;;;5110210;28;20167;-69
2022/02/15 11:08:41;;;;;;;8.25;3.13;;;19.50;88.40;;;;;;5110146;28;20553;-69
2022/02/15 11:11:26;;;;;;;7.22;3.10;;;18.10;90.80;;;;;;5108944;28;20160;-69
2022/02/15 11:13:57;;;;;;;7.38;1.98;;;17.50;91.50;;;;;;5108422;28;20198;-68
2022/02/15 11:16:24;;;;;;;10.77;2.67;;;16.00;92.70;;;;;;5109913;28;20160;-69
2022/02/15 11:18:50;;;;;;;9.10;2.60;;;14.50;94.60;;;;;;5110056;28;20569;-69
2022/02/15 11:21:27;;;;;;;6.60;2.70;;;13.40;95.50;;;;;;5109411;28;20247;-69
2022/02/15 11:23:59;;;;;;;10.63;2.50;;;12.80;96.20;;;;;;5108585;28;20277;-68
2022/02/15 11:26:33;;;;;;;4.63;2.75;;;12.60;96.70;;;;;;5109936;28;20151;-68
2022/02/15 11:28:59;;;;;;;4.60;2.17;;;12.80;97.30;;;;;;5108507;28;20159;-67
2022/02/15 11:31:31;;;;;;;6.15;2.65;;;13.10;96.70;;;;;;5109785;28;20175;-68
2022/02/15 11:34:02;;;;;;;14.32;3.35;;;13.40;96.70;;;;;;5108429;28;20195;-69
2022/02/15 11:36:28;;;;;;;10.40;2.05;;;13.70;96.40;;;;;;5109882;28;20155;-69
2022/02/15 11:39:00;;;;;;;5.18;2.13;;;13.40;96.60;;;;;;5108838;28;20167;-70
2022/02/15 11:41:28;;;;;;;7.85;2.15;;;13.40;97.40;;;;;;5109389;28;20174;-69
2022/02/15 11:43:55;;;;;;;4.80;2.65;;;13.10;97.40;;;;;;5109547;28;20193;-70
2022/02/15 11:46:31;;;;;;;5.13;2.10;;;13.10;97.20;;;;;;5109608;28;20176;-69
2022/02/15 11:49:11;;;;;;;3.97;1.85;;;13.00;97.00;;;;;;5109592;28;20219;-69
2022/02/15 11:51:39;;;;;;;4.50;2.22;;;12.70;97.20;;;;;;5109495;28;20163;-70
2022/02/15 11:54:11;;;;;;;5.07;2.60;;;12.50;97.80;;;;;;5109120;28;20187;-70
2022/02/15 11:56:37;;;;;;;8.25;2.17;;;12.30;98.10;;;;;;5109524;28;20151;-70
2022/02/15 11:59:14;;;;;;;13.77;3.17;;;12.40;98.30;;;;;;5109380;28;20143;-69
2022/02/15 12:01:44;;;;;;;9.93;2.97;;;12.20;98.70;;;;;;5108958;28;20608;-70
2022/02/15 12:04:14;;;;;;;9.15;3.53;;;12.20;98.80;;;;;;5107597;28;20237;-69
2022/02/15 12:06:42;;;;;;;11.77;3.60;;;12.20;99.00;;;;;;5104919;28;20271;-69
2022/02/15 12:09:09;;;;;;;7.05;3.25;;;12.30;99.20;;;;;;5078791;28;20239;-69
2022/02/15 12:11:40;;;;;;;7.43;2.97;;;12.40;99.00;;;;;;5088536;28;20180;-69
2022/02/15 12:14:18;;;;;;;7.50;3.45;;;12.10;99.20;;;;;;5088046;28;20191;-69
2022/02/15 12:16:51;;;;;;;5.90;3.20;;;11.90;99.60;;;;;;5088598;28;20172;-69
2022/02/15 12:19:24;;;;;;;7.05;2.67;;;11.50;99.90;;;;;;5088783;28;20529;-69
2022/02/15 12:21:51;;;;;;;11.38;3.90;;;11.50;99.90;;;;;;5087309;28;20160;-69
2022/02/15 12:24:18;;;;;;;7.47;3.50;;;11.40;99.90;;;;;;5088485;28;20199;-69
2022/02/15 12:26:44;;;;;;;7.28;2.85;;;11.10;99.90;;;;;;5088703;28;20262;-69
2022/02/15 12:29:12;;;;;;;9.20;3.55;;;10.90;99.90;;;;;;5088645;28;20191;-68
2022/02/15 12:31:38;;;;;;;8.80;3.40;;;10.60;99.90;;;;;;5087333;28;20629;-69
2022/02/15 12:34:05;;;;;;;6.22;2.45;;;10.40;99.90;;;;;;5088412;28;20355;-68
2022/02/15 12:36:33;;;;;;;6.63;3.22;;;10.20;99.90;;;;;;5088562;28;20166;-68
2022/02/15 12:39:00;;;;;;;6.80;2.92;;;10.00;99.90;;;;;;5088624;28;20159;-69
2022/02/15 12:41:25;;;;;;;5.93;2.45;;;9.80;99.90;;;;;;5088281;28;20160;-68
2022/02/15 12:43:59;;;;;;;4.07;2.63;;;9.60;99.90;;;;;;5088522;28;20290;-68
2022/02/15 12:46:25;;;;;;;7.63;2.85;;;9.40;99.90;;;;;;5088356;28;20156;-69
2022/02/15 12:48:51;;;;;;;8.45;3.67;;;9.00;99.90;;;;;;5089446;28;20160;-69
2022/02/15 12:51:19;;;;;;;6.30;3.40;;;8.70;99.90;;;;;;5092467;28;20167;-69
2022/02/15 12:53:49;;;;;;;9.77;4.15;;;8.30;99.90;;;;;;5090918;28;20279;-69